Time;durP1;ratioP1;P1;durP2;ratioP2;P2;SDS_P1;SDS_P2;PMS_P1;PMS_P2;Temp;Humidity;BMP_temperature;BMP_pressure;BME280_temperature;BME280_humidity;BME280_pressure;Samples;Min_cycle;Max_cycle;Signal;HPM_P1;HPM_P2
2022/09/13 00:00:21;;;;;;;7.17;3.30;;;14.80;80.20;;;;;;4989807;28;20190;-60
2022/09/13 00:02:47;;;;;;;4.53;3.47;;;14.80;80.30;;;;;;4998235;28;20204;-60
2022/09/13 00:05:12;;;;;;;3.17;2.87;;;14.80;80.30;;;;;;4992839;28;20190;-60
2022/09/13 00:07:38;;;;;;;4.37;3.40;;;14.70;80.70;;;;;;5010603;28;20292;-61
2022/09/13 00:10:04;;;;;;;3.30;3.00;;;14.60;80.80;;;;;;4989675;28;20202;-60
2022/09/13 00:12:30;;;;;;;3.50;2.93;;;14.60;80.80;;;;;;4995996;28;20193;-60
2022/09/13 00:14:55;;;;;;;4.13;3.73;;;14.50;80.90;;;;;;4994702;28;20205;-60
2022/09/13 00:17:21;;;;;;;6.40;3.50;;;14.50;81.00;;;;;;4998739;28;20217;-60
2022/09/13 00:19:47;;;;;;;3.77;3.03;;;14.50;81.00;;;;;;5006427;28;20196;-60
2022/09/13 00:22:13;;;;;;;7.00;3.43;;;14.40;80.80;;;;;;4993442;28;20193;-60
2022/09/13 00:24:38;;;;;;;4.00;3.37;;;14.40;80.80;;;;;;4999882;28;20194;-60
2022/09/13 00:27:04;;;;;;;5.33;3.73;;;14.40;80.90;;;;;;5005195;28;20224;-60
2022/09/13 00:29:30;;;;;;;4.90;3.20;;;14.40;80.90;;;;;;4984731;28;20244;-60
2022/09/13 00:31:56;;;;;;;5.10;3.20;;;14.40;80.90;;;;;;5010299;28;20264;-60
2022/09/13 00:34:22;;;;;;;3.93;3.63;;;14.30;80.90;;;;;;4993792;28;20196;-60
2022/09/13 00:36:47;;;;;;;5.03;3.33;;;14.30;81.00;;;;;;5015453;28;20296;-60
2022/09/13 00:39:13;;;;;;;5.53;3.60;;;14.30;80.90;;;;;;4998394;28;20227;-61
2022/09/13 00:41:39;;;;;;;7.83;3.70;;;14.30;81.10;;;;;;4982486;28;20193;-61
2022/09/13 00:44:25;;;;;;;5.77;3.73;;;14.20;81.20;;;;;;5010360;28;20208;-60
2022/09/13 00:46:51;;;;;;;3.53;3.17;;;14.20;81.30;;;;;;4981060;28;20192;-60
2022/09/13 00:49:34;;;;;;;4.10;3.63;;;14.20;81.50;;;;;;5004608;28;20194;-60
2022/09/13 00:52:05;;;;;;;6.43;3.60;;;14.20;81.40;;;;;;4991166;28;20208;-60
2022/09/13 00:54:39;;;;;;;8.53;3.77;;;14.20;81.20;;;;;;4979508;28;20185;-60
2022/09/13 00:57:09;;;;;;;5.93;3.97;;;14.20;81.10;;;;;;5009614;28;20275;-60
2022/09/13 00:59:46;;;;;;;4.83;3.30;;;14.20;81.00;;;;;;5013568;28;20235;-60
2022/09/13 01:02:13;;;;;;;3.50;3.20;;;14.10;81.00;;;;;;4979147;28;20177;-60
2022/09/13 01:04:39;;;;;;;5.83;3.83;;;14.20;81.30;;;;;;5001714;28;20193;-60
2022/09/13 01:07:09;;;;;;;6.53;4.03;;;14.10;81.10;;;;;;5003270;28;20194;-60
2022/09/13 01:09:38;;;;;;;4.33;2.90;;;14.00;81.10;;;;;;5017735;28;20192;-60
2022/09/13 01:12:07;;;;;;;4.07;3.20;;;13.90;81.60;;;;;;5013826;28;20197;-60
2022/09/13 01:14:33;;;;;;;3.53;3.23;;;13.90;81.60;;;;;;4995420;28;20223;-60
2022/09/13 01:16:59;;;;;;;4.10;3.63;;;14.00;81.60;;;;;;5018737;28;20217;-60
2022/09/13 01:19:25;;;;;;;7.30;3.43;;;13.90;81.80;;;;;;4978118;28;20205;-60
2022/09/13 01:21:58;;;;;;;4.93;3.47;;;13.90;81.70;;;;;;5034465;28;20231;-60
2022/09/13 01:24:51;;;;;;;5.50;3.80;;;13.80;81.70;;;;;;4989365;28;20184;-60
2022/09/13 01:27:37;;;;;;;5.77;3.93;;;13.80;81.80;;;;;;5022963;28;20177;-61
2022/09/13 01:30:15;;;;;;;6.47;3.70;;;13.80;81.70;;;;;;5025927;28;20184;-60
2022/09/13 01:33:11;;;;;;;8.07;3.93;;;13.70;81.70;;;;;;5019060;28;20235;-60
2022/09/13 01:35:52;;;;;;;5.60;3.90;;;13.80;82.00;;;;;;4991811;28;20193;-60
2022/09/13 01:38:42;;;;;;;5.53;3.47;;;13.70;82.20;;;;;;5017473;28;20224;-60
2022/09/13 01:41:36;;;;;;;4.10;3.70;;;13.70;82.30;;;;;;5012135;28;20271;-60
2022/09/13 01:44:23;;;;;;;4.97;3.53;;;13.70;82.30;;;;;;5011168;28;20207;-60
2022/09/13 01:46:58;;;;;;;4.90;3.50;;;13.60;82.40;;;;;;4988749;28;20188;-60
2022/09/13 01:49:42;;;;;;;3.93;3.53;;;13.70;82.10;;;;;;5008470;28;20189;-61
2022/09/13 01:52:14;;;;;;;4.53;3.67;;;13.70;82.20;;;;;;5016631;28;20239;-60
2022/09/13 01:55:16;;;;;;;6.27;4.03;;;13.60;82.10;;;;;;5024569;28;20189;-60
2022/09/13 01:57:50;;;;;;;5.40;3.60;;;13.60;82.10;;;;;;4981154;28;20211;-61
2022/09/13 02:00:17;;;;;;;4.50;3.50;;;13.50;82.20;;;;;;4989454;28;20185;-61
2022/09/13 02:03:11;;;;;;;5.50;3.80;;;13.50;82.20;;;;;;4987903;28;20180;-60
2022/09/13 02:05:50;;;;;;;4.23;3.87;;;13.50;82.30;;;;;;4982883;28;20235;-60
2022/09/13 02:08:30;;;;;;;6.57;3.93;;;13.50;82.20;;;;;;4997316;28;20197;-61
2022/09/13 02:11:03;;;;;;;4.53;4.07;;;13.40;82.40;;;;;;5018321;28;20266;-61
2022/09/13 02:13:34;;;;;;;4.20;3.80;;;13.40;82.40;;;;;;4974332;28;20287;-61
2022/09/13 02:16:17;;;;;;;9.80;4.63;;;13.30;82.50;;;;;;5020402;28;20274;-61
2022/09/13 02:18:51;;;;;;;6.40;3.80;;;13.30;82.50;;;;;;4979434;28;20223;-61
2022/09/13 02:21:28;;;;;;;4.07;3.70;;;13.30;82.50;;;;;;4995367;28;20179;-61
2022/09/13 02:24:00;;;;;;;4.60;3.90;;;13.40;82.50;;;;;;5012941;28;20180;-61
2022/09/13 02:26:27;;;;;;;4.60;4.13;;;13.30;82.60;;;;;;5026444;28;20187;-61
2022/09/13 02:28:56;;;;;;;7.50;4.23;;;13.30;82.60;;;;;;5024550;28;20197;-61
2022/09/13 02:31:50;;;;;;;5.80;4.03;;;13.30;82.40;;;;;;4990751;28;20189;-61
2022/09/13 02:34:26;;;;;;;6.37;3.70;;;13.30;82.50;;;;;;5008358;28;20273;-61
2022/09/13 02:36:54;;;;;;;4.90;3.93;;;13.30;82.50;;;;;;5016788;28;20291;-59
2022/09/13 02:39:25;;;;;;;9.80;3.87;;;13.20;82.60;;;;;;4988814;28;20211;-59
2022/09/13 02:42:07;;;;;;;4.70;3.60;;;13.20;82.50;;;;;;5019557;28;20196;-60
2022/09/13 02:44:37;;;;;;;4.63;3.83;;;13.20;82.50;;;;;;4987479;28;20180;-60
2022/09/13 02:47:13;;;;;;;6.93;3.77;;;13.20;82.50;;;;;;5005483;28;20217;-60
2022/09/13 02:50:02;;;;;;;4.97;3.80;;;13.10;82.50;;;;;;5008173;28;20193;-60
2022/09/13 02:52:45;;;;;;;6.27;3.97;;;13.00;82.50;;;;;;5015221;28;20237;-60
2022/09/13 02:55:46;;;;;;;4.17;3.57;;;13.00;82.60;;;;;;5014402;28;20188;-60
2022/09/13 02:58:25;;;;;;;5.27;3.63;;;13.00;82.70;;;;;;4998630;28;20219;-60
2022/09/13 03:00:51;;;;;;;4.13;3.73;;;13.00;82.90;;;;;;5016120;28;20195;-60
2022/09/13 03:03:16;;;;;;;4.03;3.63;;;13.10;83.00;;;;;;4981328;28;20193;-60
2022/09/13 03:05:43;;;;;;;5.93;4.13;;;13.10;83.10;;;;;;4983830;28;20197;-60
2022/09/13 03:08:11;;;;;;;6.73;4.20;;;13.10;83.00;;;;;;5011787;28;20208;-60
2022/09/13 03:10:54;;;;;;;5.47;3.77;;;13.10;82.70;;;;;;5017184;28;20197;-60
2022/09/13 03:13:48;;;;;;;5.53;3.57;;;13.00;82.70;;;;;;5021942;28;20200;-60
2022/09/13 03:16:23;;;;;;;3.97;3.57;;;12.90;82.80;;;;;;5019570;28;20201;-60
2022/09/13 03:18:59;;;;;;;4.13;3.73;;;12.90;82.80;;;;;;5018838;28;20271;-60
2022/09/13 03:21:51;;;;;;;4.27;3.87;;;12.90;82.80;;;;;;4985541;28;20189;-60
2022/09/13 03:24:44;;;;;;;4.87;4.37;;;12.90;82.90;;;;;;5010921;28;20190;-60
2022/09/13 03:27:27;;;;;;;5.93;4.10;;;12.90;83.00;;;;;;5013873;28;20631;-60
2022/09/13 03:29:58;;;;;;;4.10;3.70;;;12.80;83.10;;;;;;5014914;28;20204;-60
2022/09/13 03:32:45;;;;;;;4.40;3.83;;;12.80;83.10;;;;;;4980951;28;20315;-60
2022/09/13 03:35:38;;;;;;;4.03;3.67;;;12.80;83.10;;;;;;5027174;28;20199;-60
2022/09/13 03:38:16;;;;;;;6.20;3.67;;;12.80;83.20;;;;;;4978243;28;20275;-60
2022/09/13 03:40:49;;;;;;;4.53;3.87;;;12.80;83.20;;;;;;5017837;28;20185;-60
2022/09/13 03:43:52;;;;;;;5.43;3.67;;;12.80;83.20;;;;;;5013783;28;20192;-60
2022/09/13 03:46:32;;;;;;;5.53;3.30;;;12.80;83.30;;;;;;5007685;28;20193;-60
2022/09/13 03:49:07;;;;;;;5.27;4.20;;;12.80;83.00;;;;;;5011993;28;20189;-60
2022/09/13 03:51:35;;;;;;;3.73;3.33;;;12.80;82.90;;;;;;5021145;28;20188;-60
2022/09/13 03:54:04;;;;;;;3.37;3.07;;;12.90;83.00;;;;;;4998782;28;20197;-60
2022/09/13 03:56:30;;;;;;;7.03;4.10;;;12.90;83.20;;;;;;5020689;28;20283;-60
2022/09/13 03:58:56;;;;;;;5.27;3.90;;;12.90;83.30;;;;;;4976884;28;20209;-60
2022/09/13 04:01:23;;;;;;;4.30;3.40;;;12.90;83.20;;;;;;4989921;28;20196;-60
2022/09/13 04:03:49;;;;;;;5.47;4.23;;;12.80;83.30;;;;;;4976988;28;20213;-60
2022/09/13 04:06:15;;;;;;;4.10;3.80;;;12.80;83.40;;;;;;5005454;28;20280;-61
2022/09/13 04:08:42;;;;;;;4.73;3.97;;;12.80;83.30;;;;;;4982560;28;20289;-60
2022/09/13 04:11:08;;;;;;;4.23;3.83;;;12.80;83.50;;;;;;4986991;28;20190;-60
2022/09/13 04:13:35;;;;;;;6.17;4.30;;;12.80;83.50;;;;;;4995599;28;20188;-61
2022/09/13 04:16:04;;;;;;;4.67;3.70;;;12.80;83.50;;;;;;5005963;28;20278;-59
2022/09/13 04:18:30;;;;;;;7.03;4.20;;;12.80;83.40;;;;;;5023771;28;20231;-60
2022/09/13 04:20:57;;;;;;;4.20;3.80;;;12.90;83.30;;;;;;5019433;28;20184;-60
2022/09/13 04:23:24;;;;;;;4.37;3.93;;;12.90;83.40;;;;;;4991900;28;20185;-61
2022/09/13 04:25:50;;;;;;;4.33;3.93;;;12.90;83.40;;;;;;4995486;28;20251;-59
2022/09/13 04:28:17;;;;;;;4.20;3.73;;;12.80;83.40;;;;;;4988903;28;20197;-59
2022/09/13 04:30:44;;;;;;;4.40;4.00;;;12.90;83.50;;;;;;5017072;28;20193;-59
2022/09/13 04:33:10;;;;;;;4.70;3.90;;;12.90;83.70;;;;;;5015053;28;20252;-59
2022/09/13 04:35:37;;;;;;;6.83;4.07;;;12.90;83.30;;;;;;5007867;28;20203;-60
2022/09/13 04:38:02;;;;;;;4.30;3.90;;;12.90;83.10;;;;;;4992132;28;20212;-60
2022/09/13 04:40:28;;;;;;;5.57;4.67;;;12.80;83.20;;;;;;5000670;28;20205;-60
2022/09/13 04:42:54;;;;;;;7.67;4.40;;;12.80;83.10;;;;;;5000019;28;20191;-59
2022/09/13 04:45:19;;;;;;;4.60;3.73;;;12.80;83.00;;;;;;4999082;28;20192;-59
2022/09/13 04:47:51;;;;;;;4.87;4.07;;;12.80;83.30;;;;;;4997868;28;20211;-60
2022/09/13 04:50:17;;;;;;;5.43;3.93;;;12.80;83.30;;;;;;5020450;28;20193;-59
2022/09/13 04:52:42;;;;;;;5.23;3.93;;;12.80;83.10;;;;;;4998244;28;20199;-59
2022/09/13 04:55:09;;;;;;;5.23;3.60;;;12.80;83.10;;;;;;4980599;28;20200;-59
2022/09/13 04:57:34;;;;;;;4.50;4.10;;;12.80;83.10;;;;;;5006551;28;20228;-59
2022/09/13 05:00:00;;;;;;;4.40;3.80;;;12.70;83.40;;;;;;5001058;28;20197;-60
2022/09/13 05:02:26;;;;;;;5.90;3.77;;;12.70;83.40;;;;;;4994525;28;20185;-60
2022/09/13 05:04:51;;;;;;;7.23;4.53;;;12.80;83.70;;;;;;4981639;28;20199;-60
2022/09/13 05:07:17;;;;;;;7.20;4.80;;;12.80;83.50;;;;;;4991780;28;20193;-59
2022/09/13 05:09:42;;;;;;;5.40;3.73;;;12.80;83.60;;;;;;5006301;28;20251;-59
2022/09/13 05:12:08;;;;;;;5.70;4.10;;;12.80;83.60;;;;;;5006286;28;20205;-59
2022/09/13 05:14:34;;;;;;;5.00;4.23;;;12.80;83.80;;;;;;5016865;28;20197;-59
2022/09/13 05:16:59;;;;;;;6.07;3.77;;;12.80;84.00;;;;;;4996904;28;20282;-59
2022/09/13 05:19:25;;;;;;;5.37;4.10;;;12.80;83.70;;;;;;4965355;28;20244;-59
2022/09/13 05:21:51;;;;;;;6.70;4.43;;;12.90;83.60;;;;;;5005836;28;20243;-59
2022/09/13 05:24:16;;;;;;;5.00;4.00;;;12.90;83.60;;;;;;4998849;28;20215;-59
2022/09/13 05:26:42;;;;;;;4.80;4.27;;;12.80;83.60;;;;;;5010656;28;20251;-59
2022/09/13 05:29:07;;;;;;;13.60;4.83;;;12.80;83.60;;;;;;4980510;28;20204;-59
2022/09/13 05:31:36;;;;;;;6.40;4.73;;;12.80;83.70;;;;;;5013660;28;20185;-59
2022/09/13 05:34:06;;;;;;;8.30;4.03;;;12.80;83.80;;;;;;5008379;28;20185;-59
2022/09/13 05:36:32;;;;;;;7.13;4.57;;;12.90;83.70;;;;;;4992175;28;20180;-59
2022/09/13 05:38:59;;;;;;;5.43;4.60;;;12.90;83.60;;;;;;5008044;28;20212;-59
2022/09/13 05:41:26;;;;;;;7.20;4.97;;;13.00;83.70;;;;;;4993114;28;20217;-59
2022/09/13 05:43:51;;;;;;;4.90;3.83;;;12.90;83.80;;;;;;5010744;28;20188;-59
2022/09/13 05:46:19;;;;;;;5.90;4.63;;;13.00;83.80;;;;;;5005154;28;20193;-60
2022/09/13 05:48:45;;;;;;;5.87;4.13;;;13.00;84.00;;;;;;4982599;28;20188;-60
2022/09/13 05:51:19;;;;;;;6.40;4.77;;;13.10;84.00;;;;;;5014888;28;20191;-59
2022/09/13 05:53:50;;;;;;;6.07;3.97;;;13.10;83.80;;;;;;4978700;28;20185;-59
2022/09/13 05:56:21;;;;;;;4.97;3.93;;;13.10;83.80;;;;;;4983048;28;20200;-60
2022/09/13 05:58:48;;;;;;;6.97;4.00;;;13.10;83.80;;;;;;4979610;28;20223;-59
2022/09/13 06:01:15;;;;;;;6.53;5.17;;;13.10;83.80;;;;;;4985973;28;20216;-59
2022/09/13 06:03:41;;;;;;;6.30;4.77;;;13.20;84.00;;;;;;4972902;28;20185;-59
2022/09/13 06:06:08;;;;;;;8.03;4.60;;;13.10;84.00;;;;;;5000946;28;20194;-60
2022/09/13 06:08:34;;;;;;;10.60;4.47;;;13.20;83.90;;;;;;5012729;28;20185;-60
2022/09/13 06:11:10;;;;;;;5.13;3.97;;;13.20;83.80;;;;;;4995587;28;20223;-60
2022/09/13 06:13:37;;;;;;;6.80;4.10;;;13.30;83.70;;;;;;4986727;28;20187;-60
2022/09/13 06:16:05;;;;;;;5.90;4.77;;;13.30;84.10;;;;;;4992258;28;20192;-60
2022/09/13 06:18:31;;;;;;;5.13;4.40;;;13.30;83.80;;;;;;4984874;28;20212;-60
2022/09/13 06:21:05;;;;;;;6.67;4.33;;;13.40;83.70;;;;;;4991275;28;20213;-59
2022/09/13 06:23:31;;;;;;;7.00;4.50;;;13.40;83.70;;;;;;5023600;28;20187;-60
2022/09/13 06:26:04;;;;;;;6.03;5.03;;;13.40;83.50;;;;;;4997559;28;20258;-60
2022/09/13 06:28:30;;;;;;;8.10;4.97;;;13.50;83.20;;;;;;4964227;28;20215;-60
2022/09/13 06:31:05;;;;;;;6.23;4.30;;;13.60;83.10;;;;;;4994607;28;20197;-60
2022/09/13 06:33:32;;;;;;;6.30;4.20;;;13.70;83.10;;;;;;4987154;28;20237;-60
2022/09/13 06:36:10;;;;;;;5.10;4.37;;;13.70;83.10;;;;;;4999812;28;20204;-60
2022/09/13 06:38:35;;;;;;;7.00;4.80;;;13.70;83.20;;;;;;4990685;28;20219;-60
2022/09/13 06:41:04;;;;;;;6.57;5.47;;;13.70;83.20;;;;;;5012015;28;20182;-60
2022/09/13 06:43:30;;;;;;;6.23;4.47;;;13.80;83.10;;;;;;5013476;28;20215;-59
2022/09/13 06:46:06;;;;;;;4.90;4.00;;;13.80;83.10;;;;;;5005916;28;20185;-60
2022/09/13 06:48:34;;;;;;;5.63;4.37;;;13.80;83.10;;;;;;4978821;28;20196;-60
2022/09/13 06:51:01;;;;;;;8.03;4.30;;;13.80;83.10;;;;;;5014318;28;20189;-60
2022/09/13 06:53:28;;;;;;;5.63;4.47;;;13.80;83.20;;;;;;5023905;28;20231;-60
2022/09/13 06:56:05;;;;;;;6.10;4.93;;;13.90;83.10;;;;;;4987100;28;20185;-60
2022/09/13 06:58:31;;;;;;;7.00;4.43;;;13.90;83.10;;;;;;4989060;28;20228;-60
2022/09/13 07:01:10;;;;;;;5.97;4.63;;;13.90;83.00;;;;;;5006469;28;20189;-60
2022/09/13 07:03:38;;;;;;;5.50;4.17;;;14.00;82.80;;;;;;4989902;28;20184;-60
2022/09/13 07:06:12;;;;;;;7.20;4.13;;;14.10;82.70;;;;;;5025155;28;20188;-60
2022/09/13 07:08:38;;;;;;;9.40;5.37;;;14.10;82.50;;;;;;5011300;28;20187;-60
2022/09/13 07:11:05;;;;;;;9.30;5.00;;;14.20;82.50;;;;;;4998531;28;20204;-60
2022/09/13 07:13:31;;;;;;;8.33;4.70;;;14.20;82.30;;;;;;5020977;28;20189;-60
2022/09/13 07:15:59;;;;;;;9.10;4.40;;;14.30;82.20;;;;;;5006613;28;20287;-60
2022/09/13 07:18:25;;;;;;;7.57;4.40;;;14.30;82.00;;;;;;4991057;28;20290;-60
2022/09/13 07:20:50;;;;;;;6.67;4.77;;;14.30;82.00;;;;;;5011054;28;20193;-60
2022/09/13 07:23:16;;;;;;;5.00;4.20;;;14.30;82.30;;;;;;4987000;28;20267;-60
2022/09/13 07:25:42;;;;;;;5.30;4.80;;;14.40;82.20;;;;;;5000586;28;20293;-60
2022/09/13 07:28:07;;;;;;;7.97;6.90;;;14.40;82.00;;;;;;5038328;28;20203;-60
2022/09/13 07:30:33;;;;;;;7.70;6.80;;;14.50;82.10;;;;;;4995816;28;20263;-60
2022/09/13 07:32:58;;;;;;;9.47;6.30;;;14.60;81.90;;;;;;4998230;28;20248;-60
2022/09/13 07:35:24;;;;;;;8.53;5.20;;;14.60;81.70;;;;;;5010485;28;20201;-60
2022/09/13 07:37:50;;;;;;;9.13;6.60;;;14.60;81.70;;;;;;5013933;28;20219;-60
2022/09/13 07:40:15;;;;;;;9.57;7.97;;;14.70;81.80;;;;;;4998244;28;20204;-60
2022/09/13 07:42:41;;;;;;;11.67;7.53;;;14.80;81.70;;;;;;4996719;28;20189;-60
2022/09/13 07:45:07;;;;;;;10.80;6.53;;;14.80;81.80;;;;;;5004628;28;20262;-60
2022/09/13 07:47:33;;;;;;;11.13;7.07;;;14.80;81.80;;;;;;4983237;28;20212;-60
2022/09/13 07:49:58;;;;;;;10.43;7.70;;;14.80;81.80;;;;;;5008724;28;20271;-60
2022/09/13 07:52:24;;;;;;;12.13;6.87;;;14.90;81.70;;;;;;5000556;28;20185;-60
2022/09/13 07:54:50;;;;;;;6.97;5.70;;;15.00;81.70;;;;;;5019899;28;20194;-60
2022/09/13 07:57:15;;;;;;;7.73;5.80;;;15.00;81.40;;;;;;4975872;28;20304;-60
2022/09/13 07:59:41;;;;;;;7.10;4.40;;;15.10;80.70;;;;;;4993165;28;20190;-60
2022/09/13 08:02:08;;;;;;;5.93;3.97;;;15.10;80.60;;;;;;4988681;28;20188;-60
2022/09/13 08:04:34;;;;;;;6.57;4.23;;;15.20;80.60;;;;;;4985939;28;20188;-60
2022/09/13 08:07:00;;;;;;;4.23;3.83;;;15.30;80.50;;;;;;5009077;28;20182;-60
2022/09/13 08:09:26;;;;;;;5.83;4.87;;;15.30;80.30;;;;;;5008605;28;20191;-60
2022/09/13 08:11:51;;;;;;;7.43;4.13;;;15.40;80.20;;;;;;5008928;28;20208;-60
2022/09/13 08:14:19;;;;;;;6.20;4.60;;;15.40;80.50;;;;;;5005815;28;20192;-60
2022/09/13 08:16:45;;;;;;;6.23;4.80;;;15.50;80.40;;;;;;4975827;28;20181;-60
2022/09/13 08:19:16;;;;;;;6.43;4.20;;;15.50;80.30;;;;;;4992511;28;20291;-60
2022/09/13 08:21:43;;;;;;;4.47;4.07;;;15.60;80.50;;;;;;5016415;28;20209;-60
2022/09/13 08:24:22;;;;;;;4.20;3.70;;;15.60;80.70;;;;;;4980632;28;20252;-60
2022/09/13 08:26:48;;;;;;;3.70;3.40;;;15.70;78.80;;;;;;5007136;28;20192;-60
2022/09/13 08:29:14;;;;;;;4.03;3.67;;;15.80;78.00;;;;;;4998364;28;20266;-60
2022/09/13 08:31:40;;;;;;;4.90;3.47;;;15.80;78.50;;;;;;5021311;28;20268;-60
2022/09/13 08:34:10;;;;;;;4.30;3.70;;;15.90;78.50;;;;;;5009880;28;20217;-60
2022/09/13 08:36:36;;;;;;;5.57;4.30;;;16.00;78.90;;;;;;5004625;28;20184;-60
2022/09/13 08:39:02;;;;;;;4.43;3.30;;;16.10;77.60;;;;;;5001995;28;20224;-60
2022/09/13 08:41:47;;;;;;;4.10;3.70;;;16.20;76.50;;;;;;4989161;28;20180;-60
2022/09/13 08:44:27;;;;;;;4.77;3.43;;;16.30;76.50;;;;;;5017143;28;20271;-60
2022/09/13 08:47:08;;;;;;;6.67;3.93;;;16.40;76.20;;;;;;5018633;28;20177;-60
2022/09/13 08:49:41;;;;;;;4.30;3.20;;;16.60;75.30;;;;;;4975140;28;20190;-60
2022/09/13 08:52:19;;;;;;;3.67;3.30;;;16.60;75.70;;;;;;5017741;28;20177;-60
2022/09/13 08:54:44;;;;;;;6.07;3.03;;;16.70;75.00;;;;;;5022573;28;20183;-60
2022/09/13 08:57:37;;;;;;;3.40;3.10;;;16.80;75.80;;;;;;4991455;28;20220;-60
2022/09/13 09:00:24;;;;;;;5.63;3.97;;;16.90;74.40;;;;;;4994679;28;20212;-60
2022/09/13 09:03:30;;;;;;;4.00;3.30;;;17.10;74.10;;;;;;4993592;28;20176;-60
2022/09/13 09:05:56;;;;;;;4.03;3.63;;;17.20;71.80;;;;;;4976005;28;20269;-60
2022/09/13 09:08:40;;;;;;;3.63;3.27;;;17.30;72.00;;;;;;5017959;28;20332;-60
2022/09/13 09:11:22;;;;;;;3.87;3.50;;;17.30;73.00;;;;;;4984992;28;20184;-60
2022/09/13 09:13:51;;;;;;;3.73;3.43;;;17.30;73.70;;;;;;5023776;28;20184;-60
2022/09/13 09:16:35;;;;;;;3.30;3.00;;;17.40;72.90;;;;;;5019693;28;20188;-60
2022/09/13 09:19:47;;;;;;;4.07;3.47;;;17.50;72.50;;;;;;5014419;28;20209;-60
2022/09/13 09:22:23;;;;;;;4.40;4.00;;;17.70;72.50;;;;;;4996327;28;20219;-60
2022/09/13 09:24:55;;;;;;;5.80;3.70;;;17.70;72.90;;;;;;4978819;28;20182;-60
2022/09/13 09:27:21;;;;;;;3.77;3.47;;;17.80;73.40;;;;;;5018706;28;20208;-60
2022/09/13 09:29:50;;;;;;;4.43;3.53;;;18.00;70.60;;;;;;4989471;28;20207;-60
2022/09/13 09:32:35;;;;;;;4.53;3.33;;;18.10;68.80;;;;;;4990760;28;20445;-60
2022/09/13 09:35:37;;;;;;;5.10;3.70;;;18.30;68.80;;;;;;4983506;28;20188;-60
2022/09/13 09:38:32;;;;;;;4.90;3.13;;;18.30;69.60;;;;;;4984143;28;20239;-60
2022/09/13 09:41:09;;;;;;;3.53;2.60;;;18.30;69.10;;;;;;4985042;28;20180;-60
2022/09/13 09:43:51;;;;;;;5.57;3.33;;;18.30;69.70;;;;;;5012197;28;20186;-60
2022/09/13 09:46:22;;;;;;;3.20;2.80;;;18.50;71.00;;;;;;5018856;28;20189;-60
2022/09/13 09:49:00;;;;;;;5.03;3.20;;;18.50;70.50;;;;;;4986194;28;20212;-60
2022/09/13 09:51:27;;;;;;;3.37;3.07;;;18.50;71.10;;;;;;4978468;28;20212;-60
2022/09/13 09:54:04;;;;;;;4.03;3.10;;;18.50;69.40;;;;;;5008091;28;20199;-60
2022/09/13 09:56:33;;;;;;;4.03;3.20;;;18.50;68.60;;;;;;5022055;28;20200;-60
2022/09/13 09:58:59;;;;;;;3.70;3.40;;;18.60;68.80;;;;;;5021763;28;20236;-60
2022/09/13 10:01:29;;;;;;;4.80;3.60;;;18.80;66.50;;;;;;5025515;28;20272;-60
2022/09/13 10:04:09;;;;;;;4.33;3.93;;;18.80;66.60;;;;;;4990350;28;20612;-60
2022/09/13 10:06:39;;;;;;;3.37;3.07;;;18.80;67.20;;;;;;4991751;28;20272;-60
2022/09/13 10:09:08;;;;;;;3.30;3.00;;;18.90;67.70;;;;;;5014617;28;20193;-60
2022/09/13 10:11:58;;;;;;;4.73;3.80;;;19.00;66.80;;;;;;5015798;28;20188;-60
2022/09/13 10:14:41;;;;;;;3.67;3.30;;;19.00;67.40;;;;;;4985217;28;20189;-60
2022/09/13 10:17:17;;;;;;;4.47;3.53;;;19.10;66.70;;;;;;5019644;28;20188;-60
2022/09/13 10:20:03;;;;;;;3.30;3.00;;;19.20;65.60;;;;;;5012507;28;20182;-60
2022/09/13 10:22:30;;;;;;;4.20;3.20;;;19.20;65.90;;;;;;5014338;28;20191;-60
2022/09/13 10:25:22;;;;;;;4.23;3.40;;;19.20;67.30;;;;;;4973613;28;20176;-60
2022/09/13 10:27:52;;;;;;;4.10;3.70;;;19.30;66.20;;;;;;4983442;28;20184;-60
2022/09/13 10:30:36;;;;;;;4.00;3.60;;;19.50;64.30;;;;;;5023084;28;20185;-60
2022/09/13 10:33:03;;;;;;;3.20;2.90;;;19.60;63.70;;;;;;5020567;28;20276;-60
2022/09/13 10:35:29;;;;;;;6.27;3.57;;;19.60;63.60;;;;;;5038444;28;20315;-60
2022/09/13 10:37:55;;;;;;;3.57;3.10;;;19.50;64.00;;;;;;5007160;28;20238;-60
2022/09/13 10:40:38;;;;;;;5.30;3.47;;;19.80;64.00;;;;;;4994196;28;20184;-60
2022/09/13 10:43:12;;;;;;;3.87;3.57;;;19.90;64.70;;;;;;4980021;28;20185;-60
2022/09/13 10:45:41;;;;;;;5.40;3.70;;;19.90;63.60;;;;;;5018768;28;20185;-60
2022/09/13 10:48:12;;;;;;;3.87;3.47;;;20.00;61.60;;;;;;4988221;28;20189;-60
2022/09/13 10:50:38;;;;;;;3.73;3.23;;;20.10;63.90;;;;;;5031190;28;20184;-60
2022/09/13 10:53:24;;;;;;;3.60;3.30;;;20.20;62.00;;;;;;5001028;28;20276;-60
2022/09/13 10:55:54;;;;;;;5.80;3.67;;;20.20;62.80;;;;;;4993134;28;20231;-60
2022/09/13 10:58:19;;;;;;;4.43;2.90;;;20.20;62.80;;;;;;4992883;28;20206;-61
2022/09/13 11:01:27;;;;;;;4.83;3.73;;;20.20;63.50;;;;;;5001380;28;20180;-60
2022/09/13 11:04:41;;;;;;;3.77;3.33;;;20.40;62.50;;;;;;4999103;28;20323;-60
2022/09/13 11:07:15;;;;;;;3.90;3.50;;;20.60;61.10;;;;;;5023386;28;20189;-60
2022/09/13 11:10:12;;;;;;;6.50;3.30;;;20.70;61.40;;;;;;5023836;28;20180;-60
2022/09/13 11:13:15;;;;;;;4.40;3.60;;;20.80;61.70;;;;;;5028111;28;20184;-60
2022/09/13 11:16:14;;;;;;;4.17;3.77;;;20.90;62.40;;;;;;5001653;28;20195;-60
2022/09/13 11:18:56;;;;;;;4.27;3.23;;;21.00;61.10;;;;;;5023725;28;20308;-60
2022/09/13 11:21:25;;;;;;;4.80;3.43;;;21.20;60.70;;;;;;4989908;28;20203;-60
2022/09/13 11:23:59;;;;;;;3.97;3.50;;;21.30;60.50;;;;;;5022370;28;20235;-60
2022/09/13 11:26:50;;;;;;;5.20;3.63;;;21.30;61.40;;;;;;4984590;28;20296;-60
2022/09/13 11:29:34;;;;;;;5.67;3.23;;;21.30;60.50;;;;;;5016744;28;20276;-59
2022/09/13 11:32:24;;;;;;;4.20;3.43;;;21.30;59.70;;;;;;5018903;28;20262;-60
2022/09/13 11:35:01;;;;;;;4.00;3.30;;;21.50;61.30;;;;;;5012388;28;20200;-60
2022/09/13 11:37:33;;;;;;;5.20;4.10;;;21.70;60.30;;;;;;4977688;28;20208;-60
2022/09/13 11:40:17;;;;;;;4.60;3.33;;;21.80;60.50;;;;;;5013000;28;20185;-60
2022/09/13 11:43:17;;;;;;;3.90;3.20;;;21.90;60.40;;;;;;5018379;28;20237;-60
2022/09/13 11:45:47;;;;;;;4.80;3.13;;;21.90;60.50;;;;;;5023776;28;20188;-60
2022/09/13 11:48:47;;;;;;;5.60;3.53;;;22.00;60.40;;;;;;5016332;28;20280;-60
2022/09/13 11:51:32;;;;;;;3.10;2.80;;;22.00;60.40;;;;;;5018722;28;20288;-60
2022/09/13 11:54:20;;;;;;;4.00;3.63;;;22.10;60.90;;;;;;5018657;28;20188;-60
2022/09/13 11:56:51;;;;;;;4.00;2.97;;;22.10;62.00;;;;;;5017814;28;20191;-60
2022/09/13 11:59:34;;;;;;;3.17;2.77;;;22.20;62.30;;;;;;5014703;28;20204;-60
2022/09/13 12:02:16;;;;;;;5.80;3.40;;;22.20;62.60;;;;;;4991318;28;20192;-61
2022/09/13 12:04:55;;;;;;;3.60;3.23;;;22.20;62.60;;;;;;5026137;28;20195;-61
2022/09/13 12:07:35;;;;;;;3.93;3.17;;;22.10;61.90;;;;;;4993483;28;20224;-61
2022/09/13 12:10:18;;;;;;;3.87;3.23;;;22.10;62.30;;;;;;5019342;28;20188;-61
2022/09/13 12:12:49;;;;;;;4.77;3.40;;;22.10;58.80;;;;;;4976985;28;20193;-61
2022/09/13 12:15:17;;;;;;;3.43;3.13;;;22.20;60.50;;;;;;4984030;28;20248;-61
2022/09/13 12:17:58;;;;;;;4.63;3.20;;;22.20;60.90;;;;;;5016411;28;20204;-61
2022/09/13 12:20:37;;;;;;;7.10;3.03;;;22.20;62.60;;;;;;4983487;28;20213;-61
2022/09/13 12:23:10;;;;;;;3.80;3.17;;;22.40;63.40;;;;;;5001861;28;20204;-61
2022/09/13 12:25:55;;;;;;;5.47;2.90;;;22.60;62.80;;;;;;4991662;28;20215;-61
2022/09/13 12:29:02;;;;;;;3.60;3.30;;;22.90;62.10;;;;;;4993599;28;20192;-61
2022/09/13 12:31:29;;;;;;;6.13;3.03;;;23.40;61.20;;;;;;4978769;28;20193;-61
2022/09/13 12:33:56;;;;;;;3.43;2.97;;;23.70;57.30;;;;;;5023743;28;20180;-61
2022/09/13 12:37:00;;;;;;;3.67;2.60;;;24.00;57.50;;;;;;5004823;28;20184;-61
2022/09/13 12:39:33;;;;;;;4.07;2.60;;;24.20;57.40;;;;;;5018876;28;20196;-61
2022/09/13 12:42:37;;;;;;;3.77;2.73;;;24.30;55.90;;;;;;4987968;28;20184;-61
2022/09/13 12:45:35;;;;;;;2.97;2.67;;;24.20;56.10;;;;;;4977695;28;20216;-61
2022/09/13 12:48:15;;;;;;;3.87;2.57;;;24.20;56.40;;;;;;4989111;28;20204;-61
2022/09/13 12:51:06;;;;;;;4.63;2.70;;;24.20;56.80;;;;;;5015313;28;20259;-61
2022/09/13 12:53:40;;;;;;;4.87;2.87;;;24.30;56.50;;;;;;5013056;28;20200;-61
2022/09/13 12:56:24;;;;;;;4.87;2.47;;;24.40;55.50;;;;;;4992729;28;20186;-61
2022/09/13 12:58:58;;;;;;;3.90;2.80;;;24.60;56.90;;;;;;5024555;28;20208;-61
2022/09/13 13:01:26;;;;;;;3.23;2.80;;;25.00;54.30;;;;;;5006575;28;20211;-61
2022/09/13 13:03:55;;;;;;;4.20;2.47;;;25.30;52.20;;;;;;5008707;28;20180;-61
2022/09/13 13:06:36;;;;;;;2.87;2.67;;;25.70;52.70;;;;;;4981678;28;20182;-61
2022/09/13 13:09:20;;;;;;;3.33;2.50;;;25.70;49.00;;;;;;5018349;28;20244;-61
2022/09/13 13:11:50;;;;;;;4.57;2.83;;;25.60;49.10;;;;;;4980546;28;20177;-61
2022/09/13 13:14:44;;;;;;;3.70;2.47;;;26.00;50.10;;;;;;5002782;28;20188;-61
2022/09/13 13:17:39;;;;;;;2.90;2.47;;;26.30;48.00;;;;;;4981186;28;20205;-61
2022/09/13 13:20:42;;;;;;;5.10;2.83;;;26.60;46.30;;;;;;5013170;28;20168;-61